Time;durP1;ratioP1;P1;durP2;ratioP2;P2;SDS_P1;SDS_P2;PMS_P1;PMS_P2;Temp;Humidity;BMP_temperature;BMP_pressure;BME280_temperature;BME280_humidity;BME280_pressure;Samples;Min_cycle;Max_cycle;Signal;HPM_P1;HPM_P2
2022/07/10 00:00:01;;;;;;;2.50;1.50;;;20.90;99.90;;;;;;4992870;28;20027;-73
2022/07/10 00:02:26;;;;;;;2.53;1.60;;;20.90;99.90;;;;;;4996548;28;20042;-73
2022/07/10 00:04:52;;;;;;;1.63;1.48;;;20.90;99.90;;;;;;4993060;28;20401;-73
2022/07/10 00:07:18;;;;;;;3.03;1.50;;;20.80;99.90;;;;;;4993856;28;20025;-72
2022/07/10 00:09:43;;;;;;;3.83;1.60;;;20.80;99.90;;;;;;4993302;28;20553;-73
2022/07/10 00:12:09;;;;;;;2.10;1.30;;;20.80;99.90;;;;;;4996318;28;20023;-73
2022/07/10 00:14:35;;;;;;;2.65;1.55;;;20.80;99.90;;;;;;4993606;28;20117;-72
2022/07/10 00:17:00;;;;;;;2.13;1.50;;;20.70;99.90;;;;;;4993241;28;20025;-72
2022/07/10 00:19:26;;;;;;;2.30;1.45;;;20.70;99.90;;;;;;4992053;28;20125;-73
2022/07/10 00:21:52;;;;;;;2.92;1.90;;;20.60;99.90;;;;;;4991806;28;20030;-72
2022/07/10 00:24:17;;;;;;;2.55;1.45;;;20.60;99.90;;;;;;4991914;28;20453;-73
2022/07/10 00:26:43;;;;;;;3.30;1.65;;;20.60;99.90;;;;;;4992195;28;20114;-73
2022/07/10 00:29:09;;;;;;;3.15;1.45;;;20.50;99.90;;;;;;4993278;28;20053;-72
2022/07/10 00:31:34;;;;;;;9.45;1.63;;;20.50;99.90;;;;;;4995813;28;20065;-72
2022/07/10 00:34:00;;;;;;;4.05;1.48;;;20.50;99.90;;;;;;4992899;28;20054;-73
2022/07/10 00:36:26;;;;;;;2.00;1.50;;;20.50;99.90;;;;;;4991583;28;20465;-73
2022/07/10 00:38:51;;;;;;;3.15;1.30;;;20.50;99.90;;;;;;4993115;28;20030;-73
2022/07/10 00:41:17;;;;;;;4.28;1.52;;;20.50;99.90;;;;;;4990120;28;20398;-73
2022/07/10 00:44:02;;;;;;;4.65;1.58;;;20.50;99.90;;;;;;4992945;28;20026;-73
2022/07/10 00:46:30;;;;;;;1.55;1.30;;;20.40;99.90;;;;;;4992768;28;20489;-73
2022/07/10 00:48:57;;;;;;;1.92;1.40;;;20.40;99.90;;;;;;4992422;28;20397;-73
2022/07/10 00:51:28;;;;;;;2.45;1.65;;;20.40;99.90;;;;;;4992052;28;20037;-73
2022/07/10 00:53:54;;;;;;;2.50;1.10;;;20.40;99.90;;;;;;4991288;28;20025;-72
2022/07/10 00:56:24;;;;;;;2.75;1.50;;;20.40;99.90;;;;;;4992043;28;20034;-72
2022/07/10 00:58:50;;;;;;;1.50;1.40;;;20.40;99.90;;;;;;4991436;28;20543;-72
2022/07/10 01:01:16;;;;;;;1.63;1.52;;;20.40;99.90;;;;;;4994402;28;20113;-73
2022/07/10 01:03:43;;;;;;;3.50;1.70;;;20.30;99.90;;;;;;4992166;28;20038;-72
2022/07/10 01:06:09;;;;;;;4.63;1.70;;;20.30;99.90;;;;;;4991017;28;20022;-72
2022/07/10 01:08:35;;;;;;;1.95;1.40;;;20.30;99.90;;;;;;4992144;28;20407;-72
2022/07/10 01:11:01;;;;;;;2.42;1.45;;;20.30;99.90;;;;;;4994140;28;20018;-72
2022/07/10 01:13:27;;;;;;;3.63;1.40;;;20.30;99.90;;;;;;4991625;28;20085;-72
2022/07/10 01:15:53;;;;;;;3.10;1.50;;;20.30;99.90;;;;;;4990282;28;20505;-72
2022/07/10 01:18:20;;;;;;;2.67;1.42;;;20.30;99.90;;;;;;4988168;28;20042;-73
2022/07/10 01:20:45;;;;;;;3.35;1.45;;;20.30;99.90;;;;;;4987077;28;20038;-73
2022/07/10 01:23:11;;;;;;;1.73;1.25;;;20.30;99.90;;;;;;4989000;28;20034;-73
2022/07/10 01:25:37;;;;;;;3.05;1.40;;;20.30;99.90;;;;;;4988267;28;20022;-72
2022/07/10 01:28:03;;;;;;;3.20;1.90;;;20.30;99.90;;;;;;4988809;28;20451;-73
2022/07/10 01:30:29;;;;;;;2.10;1.48;;;20.30;99.90;;;;;;4988838;28;20489;-72
2022/07/10 01:32:54;;;;;;;4.97;1.63;;;20.30;99.90;;;;;;4990096;28;20065;-73
2022/07/10 01:35:20;;;;;;;2.38;1.58;;;20.30;99.90;;;;;;4986591;28;20022;-73
2022/07/10 01:37:46;;;;;;;1.70;1.48;;;20.30;99.90;;;;;;4987605;28;20038;-73
2022/07/10 01:40:12;;;;;;;3.60;1.73;;;20.30;99.90;;;;;;4988399;28;20030;-72
2022/07/10 01:42:39;;;;;;;2.65;1.60;;;20.30;99.90;;;;;;4991053;28;20456;-73
2022/07/10 01:45:09;;;;;;;2.38;1.42;;;20.40;99.90;;;;;;4988133;28;20110;-72
2022/07/10 01:47:35;;;;;;;6.13;1.67;;;20.40;99.90;;;;;;4987382;28;20049;-73
2022/07/10 01:50:01;;;;;;;2.67;1.67;;;20.50;99.90;;;;;;4987912;28;20031;-72
2022/07/10 01:52:26;;;;;;;3.35;1.30;;;20.50;99.90;;;;;;4987271;28;20033;-73
2022/07/10 01:54:52;;;;;;;2.60;1.40;;;20.60;99.90;;;;;;4986684;28;20038;-72
2022/07/10 01:57:18;;;;;;;1.83;1.42;;;20.60;99.90;;;;;;4988215;28;20057;-73
2022/07/10 01:59:44;;;;;;;2.80;1.70;;;20.70;99.90;;;;;;4987721;28;20037;-72
2022/07/10 02:02:10;;;;;;;2.28;1.52;;;20.70;99.90;;;;;;4988151;28;20145;-73
2022/07/10 02:04:42;;;;;;;2.35;1.38;;;20.80;99.90;;;;;;4988026;28;20467;-72
2022/07/10 02:07:18;;;;;;;2.83;1.45;;;20.90;99.90;;;;;;4986855;28;20173;-72
2022/07/10 02:09:44;;;;;;;2.85;1.30;;;20.90;99.90;;;;;;4986409;28;20050;-72
2022/07/10 02:12:12;;;;;;;5.85;1.30;;;20.80;99.90;;;;;;4990611;28;20025;-73
2022/07/10 02:14:39;;;;;;;4.03;1.48;;;20.90;99.90;;;;;;4988244;28;20615;-72
2022/07/10 02:17:05;;;;;;;1.73;1.30;;;20.90;99.90;;;;;;4988115;28;20108;-73
2022/07/10 02:19:31;;;;;;;1.65;1.45;;;21.00;99.90;;;;;;4988105;28;20445;-73
2022/07/10 02:21:57;;;;;;;3.58;1.67;;;21.00;99.90;;;;;;4987063;28;20533;-73
2022/07/10 02:24:22;;;;;;;2.08;1.50;;;21.10;99.90;;;;;;4988198;28;20523;-73
2022/07/10 02:26:49;;;;;;;2.55;1.35;;;21.10;99.90;;;;;;4987841;28;20420;-73
2022/07/10 02:29:15;;;;;;;2.58;1.60;;;21.10;99.90;;;;;;4987959;28;20412;-73
2022/07/10 02:31:40;;;;;;;1.50;1.20;;;21.10;99.90;;;;;;4990746;28;20030;-72
2022/07/10 02:34:10;;;;;;;2.15;1.35;;;21.10;99.90;;;;;;4987908;28;20112;-73
2022/07/10 02:36:38;;;;;;;1.83;1.60;;;21.10;99.90;;;;;;4986370;28;20162;-72
2022/07/10 02:39:05;;;;;;;2.92;1.42;;;21.10;99.90;;;;;;4987841;28;20040;-73
2022/07/10 02:41:31;;;;;;;3.03;1.58;;;21.10;99.90;;;;;;4984960;28;20030;-73
2022/07/10 02:43:57;;;;;;;2.20;1.50;;;21.10;99.90;;;;;;4986531;28;20432;-72
2022/07/10 02:46:22;;;;;;;6.60;1.33;;;21.10;99.90;;;;;;4987690;28;20085;-72
2022/07/10 02:48:48;;;;;;;2.38;1.73;;;21.10;99.90;;;;;;4987224;28;20046;-72
2022/07/10 02:51:14;;;;;;;2.58;1.58;;;21.10;99.90;;;;;;4988484;28;20141;-74
2022/07/10 02:53:40;;;;;;;2.42;1.30;;;21.10;99.90;;;;;;4987682;28;20042;-74
2022/07/10 02:56:06;;;;;;;1.48;1.30;;;21.10;99.90;;;;;;4986616;28;20027;-74
2022/07/10 02:58:33;;;;;;;3.80;1.60;;;21.10;99.90;;;;;;4988213;28;20386;-76
2022/07/10 03:00:58;;;;;;;2.35;1.50;;;21.10;99.90;;;;;;4989794;28;20026;-76
2022/07/10 03:03:24;;;;;;;1.55;1.20;;;21.00;99.90;;;;;;4987851;28;20100;-76
2022/07/10 03:05:50;;;;;;;2.45;1.70;;;21.10;99.90;;;;;;4985682;28;20038;-76
2022/07/10 03:08:16;;;;;;;1.05;1.02;;;21.10;99.90;;;;;;4988069;28;20038;-76
2022/07/10 03:10:41;;;;;;;3.03;1.30;;;21.10;99.90;;;;;;4990157;28;20393;-75
2022/07/10 03:13:07;;;;;;;3.38;1.38;;;21.10;99.90;;;;;;4986555;28;20493;-74
2022/07/10 03:15:33;;;;;;;1.80;1.30;;;21.10;99.90;;;;;;4985477;28;20030;-75
2022/07/10 03:17:59;;;;;;;1.63;1.50;;;21.20;99.90;;;;;;4986544;28;20473;-75
2022/07/10 03:20:25;;;;;;;3.40;1.42;;;21.20;99.90;;;;;;4986902;28;20034;-74
2022/07/10 03:22:51;;;;;;;1.50;1.30;;;21.20;99.90;;;;;;4986465;28;20552;-74
2022/07/10 03:25:17;;;;;;;2.53;1.63;;;21.10;99.90;;;;;;4985914;28;20089;-74
2022/07/10 03:27:43;;;;;;;2.80;1.42;;;21.10;99.90;;;;;;4987357;28;20038;-74
2022/07/10 03:30:09;;;;;;;5.50;1.48;;;21.10;99.90;;;;;;4985874;28;20038;-74
2022/07/10 03:32:35;;;;;;;10.40;1.58;;;21.00;99.90;;;;;;4990539;28;20429;-74
2022/07/10 03:35:01;;;;;;;2.78;1.23;;;21.00;99.90;;;;;;4990122;28;20053;-75
2022/07/10 03:37:27;;;;;;;3.00;1.38;;;20.90;99.90;;;;;;4989822;28;20030;-75
2022/07/10 03:39:53;;;;;;;1.92;1.30;;;20.90;99.90;;;;;;4990402;28;20627;-75
2022/07/10 03:42:19;;;;;;;2.03;1.42;;;20.90;99.90;;;;;;4993704;28;20315;-75
2022/07/10 03:44:45;;;;;;;2.97;1.30;;;20.90;99.90;;;;;;4989192;28;20034;-75
2022/07/10 03:47:11;;;;;;;5.25;1.63;;;20.80;99.90;;;;;;4990977;28;20065;-75
2022/07/10 03:49:38;;;;;;;2.35;1.60;;;20.90;99.90;;;;;;4986101;28;20038;-74
2022/07/10 03:52:05;;;;;;;2.85;1.50;;;20.90;99.90;;;;;;4990205;28;20114;-75
2022/07/10 03:54:30;;;;;;;3.63;1.45;;;20.90;99.90;;;;;;4989885;28;20030;-74
2022/07/10 03:59:41;;;;;;;3.85;1.40;;;20.90;99.90;;;;;;4990528;28;20045;-74
2022/07/10 04:02:07;;;;;;;2.20;1.30;;;20.90;99.90;;;;;;4988737;28;20634;-76
2022/07/10 04:04:34;;;;;;;2.42;1.35;;;21.00;99.90;;;;;;4990460;28;20519;-75
2022/07/10 04:06:59;;;;;;;2.58;1.30;;;21.00;99.90;;;;;;4989856;28;20033;-75
2022/07/10 04:09:25;;;;;;;5.28;1.45;;;21.10;99.90;;;;;;4986395;28;20043;-76
2022/07/10 04:11:51;;;;;;;4.57;1.50;;;21.10;99.90;;;;;;4993160;28;20030;-75
2022/07/10 04:14:17;;;;;;;5.85;1.40;;;21.10;99.90;;;;;;4990183;28;20117;-75
2022/07/10 04:16:42;;;;;;;5.97;1.70;;;21.20;99.90;;;;;;4989075;28;20077;-75
2022/07/10 04:19:08;;;;;;;3.92;1.30;;;21.30;99.90;;;;;;4989452;28;20077;-75
2022/07/10 04:21:34;;;;;;;2.20;1.45;;;21.30;99.90;;;;;;4989844;28;20089;-75
2022/07/10 04:23:59;;;;;;;1.70;1.15;;;21.40;99.90;;;;;;4988810;28;20026;-75
2022/07/10 04:26:25;;;;;;;1.45;1.20;;;21.50;99.90;;;;;;4989861;28;20022;-74
2022/07/10 04:28:51;;;;;;;2.40;1.48;;;21.60;99.90;;;;;;4989826;28;20074;-75
2022/07/10 04:31:17;;;;;;;5.13;1.45;;;21.70;99.90;;;;;;4991943;28;20030;-75
2022/07/10 04:33:42;;;;;;;6.97;1.40;;;21.80;99.90;;;;;;4989480;28;20424;-74
2022/07/10 04:36:08;;;;;;;2.92;1.52;;;21.80;99.90;;;;;;4989416;28;20034;-75
2022/07/10 04:38:34;;;;;;;3.42;1.27;;;21.90;99.90;;;;;;4990031;28;20062;-75
2022/07/10 04:41:00;;;;;;;4.90;1.55;;;22.00;99.90;;;;;;4992148;28;20136;-75
2022/07/10 04:43:26;;;;;;;2.72;1.30;;;21.90;99.90;;;;;;4990032;28;20030;-74
2022/07/10 04:45:51;;;;;;;5.22;1.40;;;22.00;99.90;;;;;;4988521;28;20030;-74
2022/07/10 04:48:17;;;;;;;7.25;1.48;;;22.10;99.90;;;;;;4988451;28;20047;-75
2022/07/10 04:50:43;;;;;;;3.17;1.30;;;22.10;99.90;;;;;;4989097;28;20134;-75
2022/07/10 04:53:09;;;;;;;5.85;1.40;;;22.10;99.90;;;;;;4988459;28;20553;-75
2022/07/10 04:55:34;;;;;;;3.35;1.45;;;22.20;99.90;;;;;;4987911;28;20029;-75
2022/07/10 04:58:00;;;;;;;1.48;1.20;;;22.20;99.90;;;;;;4989470;28;20034;-75
2022/07/10 05:00:26;;;;;;;2.08;1.20;;;22.20;99.90;;;;;;4989851;28;20076;-75
2022/07/10 05:02:52;;;;;;;2.05;1.30;;;22.20;99.90;;;;;;4992106;28;20054;-75
2022/07/10 05:05:18;;;;;;;1.73;1.15;;;22.30;99.90;;;;;;4988811;28;20113;-75
2022/07/10 05:07:43;;;;;;;1.48;1.20;;;22.40;99.90;;;;;;4988373;28;20292;-75
2022/07/10 05:10:09;;;;;;;1.83;1.20;;;22.50;99.90;;;;;;4988781;28;20117;-75
2022/07/10 05:12:35;;;;;;;3.70;1.27;;;22.50;99.90;;;;;;4992740;28;20030;-75
2022/07/10 05:15:01;;;;;;;2.70;1.45;;;22.60;99.90;;;;;;4988794;28;20089;-75
2022/07/10 05:17:31;;;;;;;3.63;1.45;;;22.50;99.90;;;;;;4992021;28;20037;-75
2022/07/10 05:19:57;;;;;;;4.05;1.40;;;22.50;99.90;;;;;;4990711;28;20181;-75
2022/07/10 05:22:24;;;;;;;2.55;1.30;;;22.50;99.90;;;;;;4992432;28;20078;-75
2022/07/10 05:24:50;;;;;;;2.67;1.20;;;22.50;99.90;;;;;;4987949;28;20029;-75
2022/07/10 05:27:20;;;;;;;2.28;1.40;;;22.50;99.90;;;;;;4992678;28;20397;-73
2022/07/10 05:29:46;;;;;;;4.30;1.38;;;22.40;99.90;;;;;;4991830;28;20495;-75
2022/07/10 05:32:12;;;;;;;1.80;1.38;;;22.40;99.90;;;;;;4993071;28;20033;-75
2022/07/10 05:34:38;;;;;;;2.20;1.02;;;22.30;99.90;;;;;;4990850;28;20026;-75
2022/07/10 05:37:04;;;;;;;1.60;1.35;;;22.30;99.90;;;;;;4991878;28;20080;-74
2022/07/10 05:39:29;;;;;;;3.38;1.30;;;22.30;99.90;;;;;;4991977;28;20076;-74
2022/07/10 05:41:57;;;;;;;2.97;1.45;;;22.40;99.90;;;;;;4993331;28;20033;-75
2022/07/10 05:44:23;;;;;;;2.30;1.25;;;22.30;99.90;;;;;;4991986;28;20056;-74
2022/07/10 05:46:49;;;;;;;3.00;1.50;;;22.30;99.90;;;;;;4991623;28;20023;-74
2022/07/10 05:49:14;;;;;;;2.25;1.35;;;22.40;99.90;;;;;;4990406;28;20034;-74
2022/07/10 05:51:40;;;;;;;2.25;1.33;;;22.40;99.90;;;;;;4991415;28;20509;-75
2022/07/10 05:54:06;;;;;;;1.73;1.23;;;22.40;99.90;;;;;;4991543;28;20029;-74
2022/07/10 05:56:32;;;;;;;1.42;1.15;;;22.40;99.90;;;;;;4991135;28;20066;-74
2022/07/10 05:58:57;;;;;;;3.53;1.40;;;22.40;99.90;;;;;;4991732;28;20473;-75
2022/07/10 06:01:25;;;;;;;1.67;1.27;;;22.50;99.90;;;;;;4994344;28;20075;-75
2022/07/10 06:03:51;;;;;;;1.83;1.20;;;22.60;99.90;;;;;;4991779;28;20043;-75
2022/07/10 06:06:17;;;;;;;2.03;1.30;;;22.70;99.90;;;;;;4989957;28;20117;-74
2022/07/10 06:08:44;;;;;;;2.15;1.38;;;22.90;99.90;;;;;;4990189;28;20034;-74
2022/07/10 06:11:10;;;;;;;2.35;1.17;;;22.90;99.90;;;;;;4992899;28;20544;-75
2022/07/10 06:13:37;;;;;;;2.97;1.48;;;23.10;99.90;;;;;;4991605;28;20477;-74
2022/07/10 06:16:04;;;;;;;2.88;1.38;;;23.30;99.90;;;;;;4989784;28;20022;-74
2022/07/10 06:18:33;;;;;;;2.17;1.20;;;23.40;99.90;;;;;;4991745;28;20022;-74
2022/07/10 06:20:59;;;;;;;2.28;1.48;;;23.60;99.90;;;;;;4990824;28;20026;-74
2022/07/10 06:23:25;;;;;;;1.00;1.00;;;23.80;99.90;;;;;;4990359;28;20500;-74
2022/07/10 06:25:50;;;;;;;1.85;1.10;;;24.10;99.90;;;;;;4990271;28;20019;-74
2022/07/10 06:28:17;;;;;;;2.55;1.13;;;24.30;99.90;;;;;;4996923;28;20397;-75
2022/07/10 06:30:43;;;;;;;1.80;1.15;;;24.50;99.90;;;;;;4993501;28;20026;-76
2022/07/10 06:33:09;;;;;;;2.55;1.30;;;24.60;99.90;;;;;;4990479;28;20062;-75
2022/07/10 06:35:35;;;;;;;1.83;1.20;;;24.80;99.90;;;;;;4989823;28;20935;-74
2022/07/10 06:38:01;;;;;;;1.50;1.13;;;24.90;99.90;;;;;;4991868;28;20027;-75
2022/07/10 06:40:29;;;;;;;2.50;1.10;;;25.00;99.90;;;;;;4992053;28;20072;-75
2022/07/10 06:42:54;;;;;;;1.83;1.20;;;25.20;99.90;;;;;;4993064;28;20517;-76
2022/07/10 06:45:21;;;;;;;2.88;1.30;;;25.30;99.90;;;;;;4991124;28;20054;-75
2022/07/10 06:47:56;;;;;;;4.22;2.03;;;25.40;99.90;;;;;;4991678;28;20080;-75
2022/07/10 06:50:22;;;;;;;3.42;1.13;;;25.50;99.90;;;;;;4990897;28;20042;-75
2022/07/10 06:52:49;;;;;;;1.33;1.00;;;25.70;99.90;;;;;;4991278;28;20046;-75
2022/07/10 06:55:17;;;;;;;4.55;1.20;;;25.80;99.90;;;;;;4991029;28;20062;-75
2022/07/10 06:57:43;;;;;;;2.15;1.17;;;26.00;99.90;;;;;;4990303;28;20102;-75
2022/07/10 07:00:09;;;;;;;1.02;1.00;;;26.00;99.90;;;;;;4990934;28;20022;-75
2022/07/10 07:02:35;;;;;;;1.48;0.88;;;26.10;99.90;;;;;;4992951;28;20121;-75
2022/07/10 07:05:01;;;;;;;2.67;1.00;;;26.20;99.90;;;;;;4990725;28;20085;-75
2022/07/10 07:07:27;;;;;;;2.50;1.08;;;26.20;99.90;;;;;;4992141;28;20034;-75
2022/07/10 07:09:53;;;;;;;3.00;1.15;;;26.20;99.90;;;;;;4994691;28;20045;-74
2022/07/10 07:12:18;;;;;;;1.98;1.10;;;26.20;99.90;;;;;;4997886;28;20018;-75
2022/07/10 07:14:44;;;;;;;2.15;1.20;;;26.00;99.90;;;;;;4994466;28;20800;-76
2022/07/10 07:17:14;;;;;;;2.95;1.55;;;25.80;99.90;;;;;;4992020;28;20027;-75
2022/07/10 07:25:10;;;;;;;1.80;1.20;;;25.30;99.90;;;;;;4994512;28;20045;-75
2022/07/10 07:27:37;;;;;;;3.65;1.05;;;25.10;99.90;;;;;;4994818;28;20111;-75
2022/07/10 07:30:10;;;;;;;7.82;1.50;;;25.10;99.90;;;;;;4992800;28;20038;-74
2022/07/10 07:32:36;;;;;;;3.90;1.25;;;25.00;99.90;;;;;;4998514;28;20105;-76
2022/07/10 07:35:03;;;;;;;9.18;1.30;;;24.80;99.90;;;;;;4993903;28;20093;-75
2022/07/10 07:37:37;;;;;;;2.10;1.02;;;24.70;99.90;;;;;;4993271;28;20523;-74
2022/07/10 07:40:08;;;;;;;7.63;1.77;;;24.60;99.90;;;;;;4993615;28;20070;-77
2022/07/10 07:42:34;;;;;;;3.17;1.25;;;24.50;99.90;;;;;;4997263;28;20029;-76
2022/07/10 07:44:59;;;;;;;3.67;1.20;;;24.30;99.90;;;;;;4993969;28;20106;-75
2022/07/10 07:47:26;;;;;;;6.25;1.40;;;24.30;99.90;;;;;;4994185;28;20038;-74
2022/07/10 07:49:51;;;;;;;5.93;1.58;;;24.20;99.90;;;;;;4993442;28;20113;-75
2022/07/10 07:52:17;;;;;;;2.55;1.20;;;24.10;99.90;;;;;;4992775;28;20129;-74
2022/07/10 07:54:43;;;;;;;1.70;1.50;;;24.10;99.90;;;;;;4992798;28;20389;-76
2022/07/10 07:57:08;;;;;;;3.15;1.42;;;24.10;99.90;;;;;;4993778;28;20026;-74
2022/07/10 07:59:34;;;;;;;3.75;1.38;;;24.10;99.90;;;;;;4994068;28;20026;-75
2022/07/10 08:02:00;;;;;;;2.22;1.15;;;24.10;99.90;;;;;;4994821;28;20046;-77
2022/07/10 08:04:26;;;;;;;2.40;1.20;;;24.30;99.90;;;;;;4993730;28;20032;-75
2022/07/10 08:06:53;;;;;;;3.78;1.23;;;24.30;99.90;;;;;;4992394;28;20448;-73
2022/07/10 08:09:19;;;;;;;2.20;1.20;;;24.50;99.90;;;;;;4992388;28;20035;-74
2022/07/10 08:11:45;;;;;;;2.70;1.38;;;24.60;99.90;;;;;;4995916;28;20084;-74
2022/07/10 08:14:10;;;;;;;3.17;1.23;;;24.80;99.90;;;;;;4993660;28;20023;-76
2022/07/10 08:16:36;;;;;;;2.45;1.30;;;25.00;99.90;;;;;;4993609;28;20507;-75
2022/07/10 08:19:02;;;;;;;1.13;1.02;;;25.10;99.90;;;;;;4992833;28;20031;-76
2022/07/10 08:21:27;;;;;;;2.33;1.10;;;25.20;99.90;;;;;;4993556;28;20048;-77
2022/07/10 08:23:53;;;;;;;3.90;1.30;;;25.30;99.90;;;;;;4993593;28;20037;-76
2022/07/10 08:26:19;;;;;;;3.53;1.60;;;25.40;99.90;;;;;;4993205;28;20027;-76
2022/07/10 08:28:45;;;;;;;1.88;1.30;;;25.30;99.90;;;;;;4992309;28;20132;-76
2022/07/10 08:31:11;;;;;;;3.38;1.23;;;25.30;99.90;;;;;;4995917;28;20458;-76
2022/07/10 08:33:37;;;;;;;6.10;1.58;;;25.30;99.90;;;;;;4992128;28;20121;-77
2022/07/10 08:36:04;;;;;;;2.38;1.42;;;25.20;99.90;;;;;;4992254;28;20450;-77
2022/07/10 08:38:29;;;;;;;2.60;1.42;;;25.20;99.90;;;;;;4993803;28;20493;-78
2022/07/10 08:40:57;;;;;;;4.70;1.50;;;25.10;99.90;;;;;;4996345;28;20026;-76
2022/07/10 08:43:24;;;;;;;5.03;1.50;;;25.10;99.90;;;;;;4993300;28;20389;-77
2022/07/10 08:45:51;;;;;;;5.18;1.58;;;25.10;99.90;;;;;;4990942;28;20386;-77
2022/07/10 08:48:25;;;;;;;4.78;1.50;;;25.10;99.90;;;;;;4993218;28;20037;-79
2022/07/10 08:50:57;;;;;;;2.15;1.30;;;25.20;99.90;;;;;;4992245;28;20030;-76
2022/07/10 08:53:29;;;;;;;2.88;1.27;;;25.20;99.90;;;;;;4993475;28;20033;-77
2022/07/10 08:55:55;;;;;;;1.25;1.10;;;25.20;99.90;;;;;;4992343;28;20034;-77
2022/07/10 08:58:22;;;;;;;1.40;1.25;;;25.20;99.90;;;;;;4993032;28;20030;-77
2022/07/10 09:00:49;;;;;;;2.08;1.30;;;25.30;99.90;;;;;;4987936;28;20033;-77
2022/07/10 09:03:15;;;;;;;5.03;1.20;;;25.20;99.90;;;;;;4991973;28;20125;-76
2022/07/10 09:05:40;;;;;;;2.38;1.60;;;25.20;99.90;;;;;;4992389;28;20030;-76
2022/07/10 09:08:58;;;;;;;1.90;1.10;;;25.30;99.90;;;;;;4991836;28;20034;-88
2022/07/10 09:11:25;;;;;;;2.40;1.20;;;25.30;99.90;;;;;;4986640;28;20081;-77
2022/07/10 09:13:52;;;;;;;4.95;1.30;;;25.30;99.90;;;;;;4987160;28;20034;-77
2022/07/10 09:16:28;;;;;;;1.95;1.25;;;25.20;99.90;;;;;;4991361;28;20022;-81
2022/07/10 09:18:55;;;;;;;5.78;1.45;;;25.20;99.90;;;;;;4990961;28;20122;-77
2022/07/10 09:21:22;;;;;;;1.95;1.20;;;25.30;99.90;;;;;;4992177;28;20026;-77
2022/07/10 09:23:48;;;;;;;4.10;1.58;;;25.20;99.90;;;;;;4991318;28;20026;-76
2022/07/10 09:26:14;;;;;;;2.95;1.38;;;25.20;99.90;;;;;;4990839;28;20057;-76
2022/07/10 09:28:40;;;;;;;3.65;1.38;;;25.20;99.90;;;;;;4992536;28;20066;-76
2022/07/10 09:31:06;;;;;;;2.58;1.38;;;25.30;99.90;;;;;;5004937;28;20065;-76
2022/07/10 09:33:34;;;;;;;1.90;1.10;;;25.40;99.90;;;;;;4992238;28;20077;-77
2022/07/10 09:36:08;;;;;;;2.67;1.33;;;25.30;99.90;;;;;;4989906;28;20156;-76
2022/07/10 09:38:43;;;;;;;2.75;1.05;;;25.30;99.90;;;;;;4990827;28;20034;-76
2022/07/10 09:41:21;;;;;;;2.22;1.30;;;25.30;99.90;;;;;;4992464;28;20377;-76
2022/07/10 09:43:57;;;;;;;1.42;1.20;;;25.40;99.90;;;;;;4985372;28;20035;-75
2022/07/10 09:46:25;;;;;;;2.83;1.33;;;25.60;99.90;;;;;;4988901;28;20149;-75
2022/07/10 09:49:03;;;;;;;4.53;1.17;;;25.70;99.90;;;;;;4976308;28;20031;-76
2022/07/10 09:51:45;;;;;;;3.88;1.45;;;25.70;99.90;;;;;;4985241;28;20022;-79
2022/07/10 09:54:11;;;;;;;2.22;1.10;;;25.70;99.90;;;;;;4988305;28;20030;-77
2022/07/10 09:56:44;;;;;;;6.78;1.50;;;25.60;99.90;;;;;;4988640;28;20049;-74
2022/07/10 09:59:18;;;;;;;3.42;1.35;;;25.70;99.90;;;;;;4989420;28;20482;-74
2022/07/10 10:01:52;;;;;;;2.28;1.55;;;25.70;99.10;;;;;;4990937;28;20022;-83
2022/07/10 10:04:19;;;;;;;2.25;1.52;;;25.60;99.90;;;;;;4986544;28;20030;-80
2022/07/10 10:06:52;;;;;;;1.52;1.20;;;25.60;99.90;;;;;;4987962;28;20022;-80
2022/07/10 10:09:28;;;;;;;2.50;1.00;;;25.50;99.00;;;;;;4988610;28;20440;-75
2022/07/10 10:12:00;;;;;;;2.05;1.15;;;25.60;97.40;;;;;;4991174;28;20077;-75
2022/07/10 10:14:27;;;;;;;1.67;0.77;;;25.70;97.20;;;;;;4991536;28;20023;-73
2022/07/10 10:16:55;;;;;;;1.13;0.90;;;25.80;96.50;;;;;;4978658;28;20026;-74
2022/07/10 10:22:08;;;;;;;2.83;1.00;;;26.00;94.30;;;;;;4991218;28;20073;-73
2022/07/10 10:24:36;;;;;;;2.22;1.10;;;26.00;91.70;;;;;;4992402;28;20030;-74
2022/07/10 10:27:04;;;;;;;3.38;0.77;;;26.00;91.90;;;;;;4991977;28;20014;-79
2022/07/10 10:29:30;;;;;;;2.13;1.10;;;26.00;91.20;;;;;;4990187;28;20041;-75
2022/07/10 10:31:56;;;;;;;1.02;0.90;;;26.00;93.80;;;;;;4991050;28;20490;-73
2022/07/10 10:34:38;;;;;;;2.40;1.23;;;26.00;91.80;;;;;;4990234;28;20030;-75
2022/07/10 10:37:07;;;;;;;2.10;1.02;;;25.90;89.40;;;;;;4990686;28;20442;-75
2022/07/10 10:39:53;;;;;;;4.10;1.20;;;26.00;91.20;;;;;;4990879;28;20072;-77
2022/07/10 10:42:38;;;;;;;6.38;1.35;;;26.00;93.00;;;;;;4991142;28;20505;-84
2022/07/10 10:45:29;;;;;;;3.45;1.52;;;26.10;95.00;;;;;;4982687;28;20057;-80
2022/07/10 10:48:08;;;;;;;2.95;1.30;;;26.10;95.50;;;;;;4992661;28;20452;-75
2022/07/10 10:50:42;;;;;;;1.27;1.10;;;26.10;94.20;;;;;;4994511;28;20022;-74
2022/07/10 10:53:15;;;;;;;1.33;0.90;;;26.00;94.70;;;;;;4993332;28;20489;-74
2022/07/10 10:56:01;;;;;;;2.90;1.05;;;26.00;91.00;;;;;;4994859;28;20022;-74
2022/07/10 10:58:28;;;;;;;4.25;1.30;;;26.10;91.20;;;;;;4988709;28;20031;-73
2022/07/10 11:01:28;;;;;;;2.17;1.05;;;26.20;92.10;;;;;;4997165;28;20026;-74
2022/07/10 11:04:09;;;;;;;2.22;1.05;;;26.30;86.90;;;;;;4994721;28;20039;-80
2022/07/10 11:06:52;;;;;;;1.45;1.00;;;26.30;90.50;;;;;;4990612;28;20026;-81
2022/07/10 11:09:36;;;;;;;1.75;0.90;;;26.30;89.70;;;;;;4976862;28;20069;-87
2022/07/10 11:12:10;;;;;;;2.17;1.10;;;26.30;92.30;;;;;;4996426;28;20023;-82
2022/07/10 11:14:37;;;;;;;2.08;0.90;;;26.40;90.90;;;;;;4993929;28;20018;-75
2022/07/10 11:17:04;;;;;;;2.15;0.90;;;26.50;88.20;;;;;;4994667;28;20019;-75
2022/07/10 11:19:32;;;;;;;5.07;1.40;;;26.50;92.30;;;;;;4994428;28;20046;-75
2022/07/10 11:22:19;;;;;;;3.38;1.13;;;26.50;94.70;;;;;;4993997;28;20473;-76
2022/07/10 11:25:19;;;;;;;3.33;1.40;;;26.40;97.00;;;;;;4992288;28;20034;-73
2022/07/10 11:27:54;;;;;;;4.90;1.27;;;26.40;98.20;;;;;;4992902;28;20388;-73
2022/07/10 11:30:19;;;;;;;2.10;1.10;;;26.40;94.10;;;;;;4988764;28;20045;-73
2022/07/10 11:32:45;;;;;;;2.72;1.10;;;26.40;94.20;;;;;;4997179;28;20022;-75
2022/07/10 11:35:12;;;;;;;0.82;0.70;;;26.40;94.40;;;;;;4994091;28;20121;-76
2022/07/10 11:37:50;;;;;;;1.23;0.82;;;26.40;91.60;;;;;;4994404;28;20058;-73
2022/07/10 11:40:16;;;;;;;1.55;0.90;;;26.40;86.00;;;;;;4993982;28;20481;-73
2022/07/10 11:42:55;;;;;;;0.80;0.70;;;26.50;90.00;;;;;;4997240;28;20030;-73
2022/07/10 11:45:32;;;;;;;1.42;0.88;;;26.60;85.10;;;;;;4993375;28;20030;-73
2022/07/10 11:47:59;;;;;;;2.47;0.80;;;26.60;85.70;;;;;;4994370;28;20027;-72
2022/07/10 11:50:26;;;;;;;2.80;0.93;;;26.70;87.80;;;;;;4993582;28;20026;-73
2022/07/10 11:52:53;;;;;;;1.92;0.82;;;26.70;86.10;;;;;;4994391;28;20024;-74
2022/07/10 11:55:22;;;;;;;1.35;0.88;;;26.90;84.60;;;;;;4992498;28;20517;-74
2022/07/10 11:57:48;;;;;;;1.40;0.80;;;27.00;87.50;;;;;;4999673;28;20034;-76
2022/07/10 12:00:29;;;;;;;3.40;0.90;;;27.20;80.50;;;;;;4988243;28;20584;-75
2022/07/10 12:02:57;;;;;;;1.25;0.90;;;27.30;80.10;;;;;;4991118;28;20046;-78
2022/07/10 12:05:36;;;;;;;0.70;0.70;;;27.40;82.60;;;;;;4991422;28;20030;-78
2022/07/10 12:08:02;;;;;;;1.92;0.80;;;27.80;81.20;;;;;;4992081;28;20018;-76
2022/07/10 12:10:29;;;;;;;1.58;1.00;;;28.00;84.00;;;;;;4992758;28;20084;-80
2022/07/10 12:13:13;;;;;;;2.28;0.80;;;28.70;86.70;;;;;;4995389;28;20093;-77
2022/07/10 12:15:43;;;;;;;3.28;1.10;;;29.20;88.30;;;;;;4992846;28;20030;-79
2022/07/10 12:18:19;;;;;;;3.03;1.10;;;28.70;89.00;;;;;;4991937;28;20057;-79
2022/07/10 12:20:47;;;;;;;1.98;0.90;;;28.60;89.10;;;;;;4991405;28;20027;-80
2022/07/10 12:23:18;;;;;;;2.47;1.00;;;28.80;88.60;;;;;;4981541;28;20457;-81
2022/07/10 12:25:46;;;;;;;2.03;1.15;;;29.00;85.80;;;;;;4989222;28;20019;-82
2022/07/10 12:28:12;;;;;;;0.98;0.93;;;29.00;89.90;;;;;;4988941;28;20042;-79
2022/07/10 12:30:42;;;;;;;2.30;1.10;;;28.70;90.30;;;;;;4990282;28;20057;-79
2022/07/10 12:33:09;;;;;;;2.58;1.23;;;28.40;90.60;;;;;;4988066;28;20036;-79
2022/07/10 12:35:48;;;;;;;1.25;0.85;;;27.90;91.80;;;;;;4984461;28;20406;-80
2022/07/10 12:38:33;;;;;;;2.90;1.00;;;27.60;92.90;;;;;;4993283;28;20054;-80
2022/07/10 12:41:12;;;;;;;2.22;1.20;;;27.30;93.80;;;;;;4991032;28;20099;-76
2022/07/10 12:43:39;;;;;;;1.48;1.10;;;27.10;94.50;;;;;;4987841;28;20030;-79
2022/07/10 12:46:14;;;;;;;1.63;1.20;;;27.00;94.20;;;;;;4989222;28;20029;-76
2022/07/10 12:48:41;;;;;;;2.67;1.13;;;27.00;96.00;;;;;;4988681;28;20038;-79
2022/07/10 12:51:24;;;;;;;2.50;1.40;;;27.10;94.90;;;;;;4986843;28;20190;-79
2022/07/10 12:53:50;;;;;;;5.25;1.20;;;27.20;95.50;;;;;;4989027;28;20035;-79
2022/07/10 12:56:32;;;;;;;5.57;1.10;;;27.10;94.90;;;;;;4989149;28;20018;-78
2022/07/10 12:58:59;;;;;;;2.58;1.27;;;27.00;95.50;;;;;;4987497;28;20552;-78
2022/07/10 13:01:29;;;;;;;1.85;1.08;;;26.90;95.90;;;;;;4991132;28;20045;-77
2022/07/10 13:03:59;;;;;;;1.45;1.02;;;26.90;95.90;;;;;;4988163;28;20429;-77